Vrsac, Serbia

7:37 PM CEST on July 22, 2014 (GMT +0200)
Vrsac (LYVR) Elev 279 ft | 45.15 °N, 21.31 °E | Change Station

Current weather conditions updated 7 minutes ago

Partly Cloudy
Partly Cloudy
77 °F
Feels Like 77 °F
N
6
Wind Variable Wind from SE

Tomorrow is forecast to be Cooler than today. Heavy thunderstorms.

Today
High -- | Low -- °F
--% Chance of Precip.
Yesterday
High -- | Low -- °F
Precip. -- in
5:08 AM 8:13 PM
Waning Crescent, 16% visible
Pressure 29.74 in
Visibility 6.2 miles
Clouds Few 3300 ft
Dew Point 66 °F
Humidity 69%
Rainfall 0.00 in
Snow Depth Not available.
UV 0 out of 12
Pollen Not available.
Air Quality Not available.
Flu Activity Not available.
METAR LYVR 221730Z 14005KT 060V210 9999 VCTS FEW033CB 25/19 Q1007 NOSIG

More Conditions Fewer Conditions

Pressure 29.74 in
Visibility 6.2 miles
Clouds Few 3300 ft
Dew Point 66 °F
Humidity 69%
Rainfall 0.00 in
Snow Depth Not available.
UV 0 out of 12
Pollen Not available.
Air Quality Not available.
Flu Activity Not available.
METAR LYVR 221730Z 14005KT 060V210 9999 VCTS FEW033CB 25/19 Q1007 NOSIG

More Conditions Fewer Conditions

10-Day Weather Forecast

LIGHTNING

Thunderstorms are forecast for your area. Cloud conditions might be right for producing strikes in the next few days, though lightning itself cannot be forecasted.

Lightning is a visible electrical discharge produced by a thunderstorm, based on the build up of oppositely charged particles within a cloud and from cloud to ground.

Know how to stay safe in a lightning storm.

Check out these Lightning WunderPhotos!

Almanac

Astronomy

Jul. 22, 2014 Rise Set
Actual Time 5:08 AM CEST 8:13 PM CEST
Civil Twilight 4:33 AM CEST 8:48 PM CEST
Nautical Twilight 3:47 AM CEST 9:33 PM CEST
Astronomical Twilight 2:52 AM CEST 10:27 PM CEST
Moon 1:30 AM CEST 4:32 PM CEST
Length of Visible Light 16h 15m
Length of Day
15h 04m
Tomorrow will be 2m 1s shorter.
Waning Crescent, 16% of the Moon is Illuminated
Today
Waning Crescent
Jul 26
New
Aug 3
First Quarter
Aug 10
Full
Aug 17
Last Quarter

Community

WunderPhotos

Upload Photos

1,736,298 photos uploaded!

Nearby

Snow Depth

Not available.

Earthquake Activity

City Distance Mag. Time & Date
No recent earthquake activity has been reported nearby.
Minimum magnitude displayed is 2.5.

Coastal Water Temperatures

Place Temperature
No Stations Reporting

Nearby Weather Stations

Station Location Temp. Heat Index Dew Point Humidity Wind Precip. Elev Updated Type
Vrsac 78.8 °F 81 °F 66 °F 65% SE  at  9.0 mph 0.00 in / hr 295 ft 7:28 PM CEST Normal
Tormac 68.4 °F - 62 °F 80% SSE  at  7.0 mph 0.00 in / hr 405 ft 8:30 PM EEST Normal

Show More Stations Show Fewer Stations